Flight Track Log - Related Links

Times and Time Zones

All times are in EDT time to prevent confusion due to time zone crossing. See the AFR7369 flight status page for this flight to view local times or setup timezone preferences in your user account.

Time Position Orientation Groundspeed Altitude Reporting Facility
EDT Latitude Longitude Course Direction KTS MPH feet Rate Location/Type
Thu 08:42:00 AM 48.5191 -3.3385 84° East  Level Estimated
Thu 08:43:00 AM 48.5245 -3.2483 85° East  Level Estimated
Thu 08:44:00 AM 48.5299 -3.1582 85° East  Level Estimated
Thu 08:45:00 AM 48.5353 -3.0680 85° East  Level Estimated
Thu 08:46:00 AM 48.5405 -2.9778 85° East  Level Estimated
Thu 08:47:00 AM 48.5457 -2.8876 85° East  Level Estimated
Thu 08:48:00 AM 48.5508 -2.7974 85° East  Level Estimated
Thu 08:49:00 AM 48.5559 -2.7071 85° East  Level Estimated
Thu 08:50:00 AM 48.5608 -2.6169 85° East  Level Estimated
Thu 08:51:00 AM 48.5658 -2.5266 85° East  Level Estimated
Thu 08:52:00 AM 48.5706 -2.4363 85° East  Level Estimated
Thu 08:53:00 AM 48.5754 -2.3459 85° East  Level Estimated
Thu 08:54:00 AM 48.5801 -2.2556 85° East  Level Estimated
Thu 08:55:00 AM 48.5847 -2.1653 86° East  Level Estimated
Thu 08:56:00 AM 48.5892 -2.0749 86° East  Level Estimated
Thu 08:57:00 AM 48.5937 -1.9845 86° East  Level Estimated
Thu 08:58:00 AM 48.5981 -1.8941 86° East  Level Estimated
Thu 08:59:00 AM 48.6025 -1.8037 86° East  Level Estimated
Thu 09:00:00 AM 48.6067 -1.7133 86° East  Level Estimated
Thu 09:01:00 AM 48.6109 -1.6228 86° East  Level Estimated
Thu 09:02:00 AM 48.6151 -1.5323 86° East  Level Estimated
Thu 09:03:00 AM 48.6191 -1.4419 86° East  Level Estimated
Thu 09:04:00 AM 48.6231 -1.3514 86° East  Level Estimated
Thu 09:05:00 AM 48.6270 -1.2609 86° East  Level Estimated
Thu 09:06:00 AM 48.6309 -1.1703 86° East  Level Estimated
Thu 09:07:00 AM 48.6347 -1.0798 86° East  Level Estimated
Thu 09:08:00 AM 48.6384 -0.9893 86° East  Level Estimated
Thu 09:09:00 AM 48.6420 -0.8987 86° East  Level Estimated
Thu 09:10:00 AM 48.6455 -0.8081 87° East  Level Estimated
Thu 09:11:00 AM 48.6490 -0.7175 87° East  Level Estimated
Thu 09:12:00 AM 48.6525 -0.6269 87° East  Level Estimated
Thu 09:13:00 AM 48.6558 -0.5363 87° East  Level Estimated
Thu 09:14:00 AM 48.6591 -0.4457 87° East  Level Estimated
Thu 09:15:00 AM 48.6623 -0.3551 87° East  Level Estimated
Thu 09:16:00 AM 48.6654 -0.2644 87° East  Level Estimated
Thu 09:17:00 AM 48.6685 -0.1738 87° East  Level Estimated
Thu 09:18:00 AM 48.6718 -0.0738 87° East  Level Estimated
Thu 09:19:00 AM 48.6750 0.0262 87° East  Level Estimated
Thu 09:20:00 AM 48.6781 0.1263 87° East  Level Estimated
Thu 09:21:00 AM 48.6812 0.2263 87° East  Level Estimated
Thu 09:22:00 AM 48.6841 0.3264 87° East  Level Estimated
Thu 09:23:00 AM 48.6870 0.4264 87° East  Level Estimated
Thu 09:24:00 AM 48.6898 0.5265 88° East  Level Estimated
Thu 09:25:00 AM 48.6925 0.6266 88° East  Level Estimated
Thu 09:26:00 AM 48.6950 0.7267 88° East  Level Estimated
Thu 09:27:00 AM 48.6976 0.8268 88° East  Level Estimated
Thu 09:28:00 AM 48.7000 0.9269 88° East  Level Estimated
Thu 09:29:00 AM 48.7024 1.0270 88° East  Level Estimated
Thu 09:30:00 AM 48.7046 1.1272 88° East  Level Estimated
Thu 09:31:00 AM 48.7068 1.2273 88° East  Level Estimated
Thu 09:32:00 AM 48.7089 1.3274 88° East  Level Estimated
Thu 09:33:00 AM 48.7109 1.4276 88° East  Level Estimated
Thu 09:34:00 AM 48.7129 1.5324 88° East  Level Estimated
Thu 09:35:00 AM 48.7148 1.6372 88° East  Level Estimated
Thu 09:36:00 AM 48.7166 1.7420 88° East  Level Estimated
Thu 09:37:00 AM 48.7183 1.8468 89° East  Level Estimated
Thu 09:38:00 AM 48.7199 1.9516 89° East  Level Estimated
Thu 09:39:00 AM 48.7214 2.0565 89° East  Level Estimated
Thu 09:40:00 AM 48.7228 2.1613 89° East  Level Estimated
Thu 09:41:00 AM 48.7242 2.2661 89° East  Level Estimated
Thu 09:42:00 AM 48.7253 2.3594 89° East  Level Estimated
Thu 09:43:00 AM 48.7253 2.3594 127° Southeast  Level Estimated
Thu 09:44:00 AM 48.7253 2.3594 127° Southeast  Level Estimated
Thu 09:45:00 AM 48.7253 2.3594 127° Southeast  Level Estimated
Thu 09:46:00 AM 48.7253 2.3594 127° Southeast  Level Estimated
Thu 09:47:00 AM 48.7253 2.3594 127° Southeast  Level Estimated
Thu 09:48:00 AM 48.7253 2.3594 127° Southeast  Level Estimated
Thu 09:49:00 AM 48.7253 2.3594 127° Southeast  Level Estimated
Thu 09:50:00 AM 48.7253 2.3594 127° Southeast  Level Estimated

Login

Don't have an account? Register now (free) for customized features, flight alerts, and more!